FW1926 Weather Reports


Display with metric or nautical units.
time (UTC)temp
F
wind
direction
speed
MPH
gust
MPH
rain 1hr
in
rain 24hr
in
rain mn
in
humidity
%
barometer
mb
20190826010046 78 160 0.0 4.0 0.01 0.10 0.07 65 1008.8
20190826005019 78 329 0.0 2.0 0.01 0.10 0.07 65 1008.7
20190826004031 78 274 0.0 4.0 0.01 0.10 0.07 65 1008.6
20190826003022 78 290 0.0 4.0 0.01 0.08 0.05 65 1008.5
20190826002026 78 285 0.0 2.0 0.01 0.08 0.05 65 1008.2
20190826001038 78 303 0.0 2.0 0.01 0.08 0.05 65 1008.2
20190826000031 78 276 0.0 4.0 0.01 0.08 0.05 65 1007.9
20190825235022 78 284 0.0 2.0 0.01 0.08 0.05 65 1007.6
20190825234033 78 197 0.0 4.0 0.01 0.08 0.05 65 1007.5
20190825233019 78 141 0.0 4.0 0.00 0.07 0.03 65 1007.2
20190825232034 78 138 0.0 4.0 0.00 0.07 0.03 65 1007.2
20190825231023 78 141 0.0 4.0 0.00 0.07 0.03 65 1007.2
20190825230027 77 0.0 0.0 0.00 0.07 0.03 65 1007.2
20190825225022 77 311 0.0 2.0 0.00 0.07 0.03 65 1007.2
20190825224034 77 227 0.0 2.0 0.00 0.07 0.03 65 1006.9
20190825223022 77 0.0 0.0 0.00 0.07 0.03 65 1006.9
20190825222034 77 0.0 0.0 0.00 0.07 0.03 65 1006.9
20190825221019 76 303 0.0 2.0 0.00 0.07 0.03 65 1007.1
20190825220033 76 280 0.0 4.0 0.00 0.07 0.03 65 1007.2
20190825215107 0 0.0 0.0 0.00 0.07 0.03
20190825214026 0 0.0 0.0 0.00 0.07 0.03
20190825213051 0 0.0 0.0 0.00 0.07 0.03
20190825212115 0 0.0 0.0 0.00 0.07 0.03
20190825211035 0 0.0 0.0 0.00 0.07 0.03
20190825210058 0 0.0 0.0 0.00 0.07 0.03
20190825205019 0 0.0 0.0 0.00 0.07 0.03
20190825204042 0 0.0 0.0 0.00 0.07 0.03
20190825203107 0 0.0 0.0 0.00 0.07 0.03
20190825202026 0 0.0 0.0 0.00 0.07 0.03
20190825201051 0 0.0 0.0 0.00 0.07 0.03
20190825200114 0 0.0 0.0 0.00 0.07 0.03
20190825195035 0 0.0 0.0 0.00 0.07 0.03
20190825194059 0 0.0 0.0 0.00 0.07 0.03
20190825193019 0 0.0 0.0 0.00 0.07 0.03
20190825192042 0 0.0 0.0 0.00 0.07 0.03
20190825191107 0 0.0 0.0 0.00 0.07 0.03
20190825190026 0 0.0 0.0 0.00 0.07 0.03
20190825185051 0 0.0 0.0 0.00 0.07 0.03
20190825184115 0 0.0 0.0 0.00 0.07 0.03
20190825183035 0 0.0 0.0 0.00 0.07 0.03
20190825182058 0 0.0 0.0 0.00 0.07 0.03
20190825181019 0 0.0 0.0 0.00 0.07 0.03
20190825180043 0 0.0 0.0 0.03 0.07 0.03
20190825175107 0 0.0 0.0 0.03 0.07 0.03
20190825174026 0 0.0 0.0 0.03 0.07 0.03
20190825173050 78 0.0 0.0 0.05 0.07 0.03 65 1008.1
20190825172031 78 250 0.0 4.0 0.04 0.06 0.03 65 1008.2
20190825171022 79 273 0.0 7.0 0.05 0.06 0.03 65 1008.2
20190825170031 79 139 0.0 4.0 0.02 0.03 0.00 65 1008.3
20190825165019 79 0.0 0.0 0.01 0.03 0.03 65 1008.3
20190825164030 80 312 0.0 2.0 0.01 0.03 0.03 65 1008.3
20190825163022 80 168 0.0 2.0 0.00 0.01 0.01 65 1008.3
20190825162027 80 0.0 0.0 0.00 0.01 0.01 65 1008.3
20190825161022 81 0.0 0.0 0.00 0.01 0.01 65 1008.3
20190825160030 81 140 0.0 4.0 0.00 0.01 0.01 65 1008.3
20190825155023 81 153 0.0 2.0 0.00 0.01 0.01 65 1008.3
20190825154034 81 139 0.0 2.0 0.01 0.01 0.01 65 1008.3
20190825153019 81 132 0.0 9.0 0.01 0.01 0.01 65 1008.3
20190825152030 81 261 0.0 4.0 0.01 0.01 0.01 65 1008.3
20190825151021 82 151 0.0 4.0 0.01 0.01 0.01 65 1008.0
20190825150027 82 176 0.0 4.0 0.01 0.01 0.01 65 1007.8
20190825145021 83 157 0.0 2.0 0.01 0.01 0.01 65 1007.7
20190825144115 83 346 0.0 2.0 0.00 0.00 0.00 65 1007.8
20190825143021 83 278 0.0 4.0 0.00 0.00 0.00 65 1007.6
20190825142030 83 159 0.0 7.0 0.00 0.00 0.00 65 1007.6
20190825141018 84 254 0.0 4.0 0.00 0.00 0.00 65 1007.5
20190825140029 84 226 0.0 7.0 0.00 0.00 0.00 65 1007.2
20190825135021 85 290 0.0 4.0 0.00 0.00 0.00 65 1006.9
20190825134026 85 264 0.0 4.0 0.00 0.00 0.00 65 1006.6
20190825133022 86 253 1.0 4.0 0.00 0.00 0.00 65 1006.3
20190825132030 86 238 0.0 7.0 0.00 0.00 0.00 65 1006.2
20190825131021 86 280 1.0 7.0 0.00 0.00 0.00 65 1005.9
20190825130031 86 251 1.0 4.0 0.00 0.00 0.00 65 1005.8
20190825125018 86 270 1.0 7.0 0.00 0.00 0.00 65 1005.6
20190825124031 86 258 1.0 7.0 0.00 0.00 0.00 65 1005.6
20190825123022 87 228 0.0 4.0 0.00 0.00 0.00 65 1005.6
20190825122027 86 269 0.0 7.0 0.00 0.00 0.00 65 1005.3
20190825121023 86 271 1.0 4.0 0.00 0.00 0.00 65 1005.2
20190825120029 86 268 2.0 7.0 0.00 0.00 0.00 65 1004.8
20190825115023 86 78 0.0 4.0 0.00 0.00 0.00 65 1004.5
20190825114031 86 110 0.0 4.0 0.00 0.00 0.00 65 1004.5
20190825113019 87 346 0.0 4.0 0.00 0.00 0.00 65 1004.5
20190825112032 87 60 0.0 7.0 0.00 0.00 0.00 65 1004.2
20190825111021 87 239 1.0 12.0 0.00 0.00 0.00 65 1004.2
20190825110026 88 18 0.0 4.0 0.00 0.00 0.00 65 1004.1
20190825105021 88 303 0.0 4.0 0.00 0.00 0.00 65 1004.0
20190825104031 89 48 0.0 4.0 0.00 0.00 0.00 65 1003.9
20190825103023 89 10 1.0 7.0 0.00 0.00 0.00 65 1003.9
20190825102031 90 246 1.0 7.0 0.00 0.00 0.00 65 1003.8
20190825101018 91 247 1.0 7.0 0.00 0.00 0.00 65 1003.5
20190825100032 91 289 2.0 12.0 0.00 0.00 0.00 65 1003.3
20190825095023 91 285 2.0 9.0 0.00 0.00 0.00 65 1003.2
20190825094026 91 344 2.0 9.0 0.00 0.00 0.00 65 1003.2
20190825093022 91 286 2.0 9.0 0.00 0.00 0.00 65 1003.2
20190825092032 92 283 1.0 12.0 0.00 0.00 0.00 65 1003.2
20190825091021 92 282 3.0 9.0 0.00 0.00 0.00 65 1003.3
20190825090031 92 119 1.0 9.0 0.00 0.00 0.00 65 1003.4
20190825085019 92 276 1.0 7.0 0.00 0.00 0.00 65 1003.5
20190825084031 93 300 0.0 4.0 0.00 0.00 0.00 65 1003.5
20190825083021 93 164 1.0 7.0 0.00 0.00 0.00 65 1003.5
20190825082027 93 241 2.0 7.0 0.00 0.00 0.00 65 1003.9
20190825081021 92 345 1.0 4.0 0.00 0.00 0.00 65 1003.9
20190825080031 91 173 3.0 9.0 0.00 0.00 0.00 65 1004.1
20190825075021 91 266 2.0 9.0 0.00 0.00 0.00 65 1004.2
20190825074031 91 261 1.0 4.0 0.00 0.00 0.00 65 1004.3
20190825073019 91 210 2.0 9.0 0.00 0.00 0.00 65 1004.2
20190825072031 90 194 1.0 7.0 0.00 0.00 0.00 65 1004.5
20190825071021 90 254 1.0 7.0 0.00 0.00 0.00 65 1004.6
20190825070026 90 265 1.0 7.0 0.00 0.00 0.00 65 1004.9
20190825065022 90 135 3.0 9.0 0.00 0.00 0.00 65 1004.9
20190825064031 90 279 1.0 12.0 0.00 0.00 0.00 65 1005.2
20190825063021 91 285 2.0 7.0 0.00 0.00 0.00 65 1005.2
20190825062046 91 260 1.0 7.0 0.00 0.00 0.00 65 1005.5
20190825061019 91 216 1.0 7.0 0.00 0.00 0.00 65 1005.6
20190825060032 90 172 0.0 4.0 0.00 0.00 0.00 65 1005.6
20190825055021 91 182 2.0 7.0 0.00 0.00 0.00 65 1005.8
20190825054027 91 249 1.0 4.0 0.00 0.00 0.00 65 1005.9
20190825053022 91 159 3.0 12.0 0.00 0.00 0.00 65 1005.9
20190825052031 90 249 2.0 9.0 0.00 0.00 0.00 65 1006.2
20190825051022 90 182 2.0 12.0 0.00 0.00 0.00 65 1006.3
20190825050031 90 197 3.0 9.0 0.00 0.00 0.00 65 1006.6
20190825045019 90 266 2.0 7.0 0.00 0.00 0.00 65 1006.9
20190825044032 90 288 1.0 7.0 0.00 0.00 0.00 65 1006.9
20190825043022 90 272 3.0 7.0 0.00 0.00 0.00 65 1007.2
20190825042027 90 146 1.0 9.0 0.00 0.00 0.00 65 1007.5
20190825041021 90 322 1.0 4.0 0.00 0.00 0.00 65 1007.6
20190825040031 90 134 0.0 7.0 0.00 0.00 0.00 65 1007.6
20190825035021 90 267 1.0 7.0 0.00 0.00 0.00 65 1007.7
20190825034032 90 232 2.0 7.0 0.00 0.00 0.00 65 1007.9
20190825033018 90 255 1.0 7.0 0.00 0.00 0.00 65 1007.9
20190825032031 89 198 1.0 4.0 0.00 0.00 0.00 65 1007.9
20190825031021 89 143 1.0 4.0 0.00 0.00 0.00 65 1007.9
20190825030027 89 250 1.0 9.0 0.00 0.00 0.00 65 1008.2
20190825025021 89 275 2.0 7.0 0.00 0.00 0.00 65 1008.2
20190825024033 89 257 1.0 7.0 0.00 0.00 0.00 65 1008.3
20190825023021 89 271 2.0 7.0 0.00 0.00 0.00 65 1008.3
20190825022031 89 40 0.0 9.0 0.00 0.00 0.00 65 1008.3
20190825021018 88 150 0.0 4.0 0.00 0.00 0.00 65 1008.1
20190825020031 88 255 1.0 7.0 0.00 0.00 0.00 65 1007.9
20190825015038 87 183 0.0 2.0 0.00 0.00 0.00 65 1007.7
20190825014027 87 218 0.0 4.0 0.00 0.00 0.00 65 1007.6
20190825013021 87 256 1.0 7.0 0.00 0.00 0.00 65 1007.6
20190825012031 86 274 0.0 7.0 0.00 0.00 0.00 65 1007.6
20190825011021 86 268 0.0 7.0 0.00 0.00 0.00 65 1007.5